sensor_id;sensor_type;location;lat;lon;timestamp;temperature;humidity
6357;DHT22;3211;53.452;-2.264;2023-01-04T00:02:07;12.20;99.90
6357;DHT22;3211;53.452;-2.264;2023-01-04T00:04:34;12.20;99.90
6357;DHT22;3211;53.452;-2.264;2023-01-04T00:07:01;12.20;99.90
6357;DHT22;3211;53.452;-2.264;2023-01-04T00:09:28;12.20;99.90
6357;DHT22;3211;53.452;-2.264;2023-01-04T00:11:55;12.20;99.90
6357;DHT22;3211;53.452;-2.264;2023-01-04T00:14:23;12.20;99.90
6357;DHT22;3211;53.452;-2.264;2023-01-04T00:16:50;12.20;99.90
6357;DHT22;3211;53.452;-2.264;2023-01-04T00:19:17;12.20;99.90
6357;DHT22;3211;53.452;-2.264;2023-01-04T00:21:44;12.20;99.90
6357;DHT22;3211;53.452;-2.264;2023-01-04T00:24:11;12.20;99.90
6357;DHT22;3211;53.452;-2.264;2023-01-04T00:26:40;12.20;99.90
6357;DHT22;3211;53.452;-2.264;2023-01-04T00:29:11;12.20;99.90
6357;DHT22;3211;53.452;-2.264;2023-01-04T00:31:40;12.20;99.90
6357;DHT22;3211;53.452;-2.264;2023-01-04T00:34:10;12.20;99.90
6357;DHT22;3211;53.452;-2.264;2023-01-04T00:36:38;12.20;99.90
6357;DHT22;3211;53.452;-2.264;2023-01-04T00:39:05;12.20;99.90
6357;DHT22;3211;53.452;-2.264;2023-01-04T00:41:35;12.20;99.90
6357;DHT22;3211;53.452;-2.264;2023-01-04T00:44:03;12.20;99.90
6357;DHT22;3211;53.452;-2.264;2023-01-04T00:46:30;12.20;99.90
6357;DHT22;3211;53.452;-2.264;2023-01-04T00:48:59;12.20;99.90
6357;DHT22;3211;53.452;-2.264;2023-01-04T00:51:27;12.20;99.90
6357;DHT22;3211;53.452;-2.264;2023-01-04T00:53:55;12.20;99.90
6357;DHT22;3211;53.452;-2.264;2023-01-04T00:56:22;12.20;99.90
6357;DHT22;3211;53.452;-2.264;2023-01-04T00:58:53;12.30;99.90
6357;DHT22;3211;53.452;-2.264;2023-01-04T01:01:20;12.30;99.90
6357;DHT22;3211;53.452;-2.264;2023-01-04T01:03:47;12.30;99.90
6357;DHT22;3211;53.452;-2.264;2023-01-04T01:06:15;12.50;99.90
6357;DHT22;3211;53.452;-2.264;2023-01-04T01:08:43;12.60;99.90
6357;DHT22;3211;53.452;-2.264;2023-01-04T01:11:10;12.60;99.90
6357;DHT22;3211;53.452;-2.264;2023-01-04T01:13:38;12.70;99.90
6357;DHT22;3211;53.452;-2.264;2023-01-04T01:16:07;12.90;99.90
6357;DHT22;3211;53.452;-2.264;2023-01-04T01:18:35;13.00;99.90
6357;DHT22;3211;53.452;-2.264;2023-01-04T01:21:03;13.00;99.90
6357;DHT22;3211;53.452;-2.264;2023-01-04T01:23:32;13.10;99.90
6357;DHT22;3211;53.452;-2.264;2023-01-04T01:26:00;13.10;99.90
6357;DHT22;3211;53.452;-2.264;2023-01-04T01:28:27;13.10;99.90
6357;DHT22;3211;53.452;-2.264;2023-01-04T01:30:54;13.10;99.90
6357;DHT22;3211;53.452;-2.264;2023-01-04T01:33:24;13.10;99.90
6357;DHT22;3211;53.452;-2.264;2023-01-04T01:35:51;13.10;99.90
6357;DHT22;3211;53.452;-2.264;2023-01-04T01:38:17;13.20;99.90
6357;DHT22;3211;53.452;-2.264;2023-01-04T01:40:46;13.20;99.90
6357;DHT22;3211;53.452;-2.264;2023-01-04T01:43:17;13.20;99.90
6357;DHT22;3211;53.452;-2.264;2023-01-04T01:45:45;13.10;99.90
6357;DHT22;3211;53.452;-2.264;2023-01-04T01:48:17;13.20;99.90
6357;DHT22;3211;53.452;-2.264;2023-01-04T01:50:48;13.20;99.90
6357;DHT22;3211;53.452;-2.264;2023-01-04T01:53:16;13.10;99.90
6357;DHT22;3211;53.452;-2.264;2023-01-04T01:55:44;13.20;99.90
6357;DHT22;3211;53.452;-2.264;2023-01-04T01:58:17;13.10;99.90
6357;DHT22;3211;53.452;-2.264;2023-01-04T02:00:46;13.10;99.90
6357;DHT22;3211;53.452;-2.264;2023-01-04T02:03:15;13.10;99.90
6357;DHT22;3211;53.452;-2.264;2023-01-04T02:05:44;13.10;99.90
6357;DHT22;3211;53.452;-2.264;2023-01-04T02:08:14;13.10;99.90
6357;DHT22;3211;53.452;-2.264;2023-01-04T02:10:41;13.10;99.90
6357;DHT22;3211;53.452;-2.264;2023-01-04T02:13:11;13.10;99.90
6357;DHT22;3211;53.452;-2.264;2023-01-04T02:15:51;13.00;99.90
6357;DHT22;3211;53.452;-2.264;2023-01-04T02:18:27;13.10;99.90
6357;DHT22;3211;53.452;-2.264;2023-01-04T02:20:59;13.00;99.90
6357;DHT22;3211;53.452;-2.264;2023-01-04T02:23:53;13.00;99.90
6357;DHT22;3211;53.452;-2.264;2023-01-04T02:26:53;13.00;99.90
6357;DHT22;3211;53.452;-2.264;2023-01-04T02:33:12;13.00;99.90
6357;DHT22;3211;53.452;-2.264;2023-01-04T02:35:48;13.00;99.90
6357;DHT22;3211;53.452;-2.264;2023-01-04T02:38:21;13.00;99.90
6357;DHT22;3211;53.452;-2.264;2023-01-04T02:40:55;13.00;99.90
6357;DHT22;3211;53.452;-2.264;2023-01-04T02:43:32;13.00;99.90
6357;DHT22;3211;53.452;-2.264;2023-01-04T02:46:26;13.10;99.90
6357;DHT22;3211;53.452;-2.264;2023-01-04T02:48:58;13.10;99.90
6357;DHT22;3211;53.452;-2.264;2023-01-04T02:51:42;13.10;99.90
6357;DHT22;3211;53.452;-2.264;2023-01-04T02:54:12;13.00;99.90
6357;DHT22;3211;53.452;-2.264;2023-01-04T02:56:59;13.10;99.90
6357;DHT22;3211;53.452;-2.264;2023-01-04T02:59:47;13.00;99.90
6357;DHT22;3211;53.452;-2.264;2023-01-04T03:02:37;13.10;99.90
6357;DHT22;3211;53.452;-2.264;2023-01-04T03:05:31;13.10;99.90
6357;DHT22;3211;53.452;-2.264;2023-01-04T03:08:27;13.20;99.90
6357;DHT22;3211;53.452;-2.264;2023-01-04T03:10:59;13.20;99.90
6357;DHT22;3211;53.452;-2.264;2023-01-04T03:13:29;13.10;99.90
6357;DHT22;3211;53.452;-2.264;2023-01-04T03:15:59;13.20;99.90
6357;DHT22;3211;53.452;-2.264;2023-01-04T03:18:29;13.20;99.90
6357;DHT22;3211;53.452;-2.264;2023-01-04T03:21:00;13.30;99.90
6357;DHT22;3211;53.452;-2.264;2023-01-04T03:23:33;13.30;99.90
6357;DHT22;3211;53.452;-2.264;2023-01-04T03:26:31;13.20;99.90
6357;DHT22;3211;53.452;-2.264;2023-01-04T03:29:20;13.20;99.90
6357;DHT22;3211;53.452;-2.264;2023-01-04T03:32:09;13.10;99.90
6357;DHT22;3211;53.452;-2.264;2023-01-04T03:34:55;13.20;99.90
6357;DHT22;3211;53.452;-2.264;2023-01-04T03:37:46;13.30;99.90
6357;DHT22;3211;53.452;-2.264;2023-01-04T03:40:22;13.20;99.90
6357;DHT22;3211;53.452;-2.264;2023-01-04T03:43:13;13.10;99.90
6357;DHT22;3211;53.452;-2.264;2023-01-04T03:46:06;13.10;99.90
6357;DHT22;3211;53.452;-2.264;2023-01-04T03:48:57;13.20;99.90
6357;DHT22;3211;53.452;-2.264;2023-01-04T03:51:28;13.20;99.90
6357;DHT22;3211;53.452;-2.264;2023-01-04T03:54:01;13.20;99.90
6357;DHT22;3211;53.452;-2.264;2023-01-04T03:56:30;13.20;99.90
6357;DHT22;3211;53.452;-2.264;2023-01-04T03:58:58;13.30;99.90
6357;DHT22;3211;53.452;-2.264;2023-01-04T04:01:26;13.20;99.90
6357;DHT22;3211;53.452;-2.264;2023-01-04T04:03:54;13.30;99.90
6357;DHT22;3211;53.452;-2.264;2023-01-04T04:06:38;13.30;99.90
6357;DHT22;3211;53.452;-2.264;2023-01-04T04:09:25;13.20;99.90
6357;DHT22;3211;53.452;-2.264;2023-01-04T04:11:52;13.20;99.90
6357;DHT22;3211;53.452;-2.264;2023-01-04T04:14:19;13.10;99.90
6357;DHT22;3211;53.452;-2.264;2023-01-04T04:16:46;13.00;99.90
6357;DHT22;3211;53.452;-2.264;2023-01-04T04:19:12;12.90;99.90
6357;DHT22;3211;53.452;-2.264;2023-01-04T04:21:40;12.90;99.90
6357;DHT22;3211;53.452;-2.264;2023-01-04T04:24:17;12.90;99.90
6357;DHT22;3211;53.452;-2.264;2023-01-04T04:26:45;12.80;99.90
6357;DHT22;3211;53.452;-2.264;2023-01-04T04:29:12;12.70;99.90
6357;DHT22;3211;53.452;-2.264;2023-01-04T04:31:39;12.70;99.90
6357;DHT22;3211;53.452;-2.264;2023-01-04T04:34:08;12.60;99.90
6357;DHT22;3211;53.452;-2.264;2023-01-04T04:36:35;12.60;99.90
6357;DHT22;3211;53.452;-2.264;2023-01-04T04:39:02;12.50;99.90
6357;DHT22;3211;53.452;-2.264;2023-01-04T04:41:29;12.50;99.90
6357;DHT22;3211;53.452;-2.264;2023-01-04T04:44:06;12.40;99.90
6357;DHT22;3211;53.452;-2.264;2023-01-04T04:46:34;12.30;99.90
6357;DHT22;3211;53.452;-2.264;2023-01-04T04:49:02;12.30;99.90
6357;DHT22;3211;53.452;-2.264;2023-01-04T04:51:29;12.20;99.90
6357;DHT22;3211;53.452;-2.264;2023-01-04T04:53:56;12.20;99.90
6357;DHT22;3211;53.452;-2.264;2023-01-04T04:56:24;12.20;99.90
6357;DHT22;3211;53.452;-2.264;2023-01-04T04:58:51;12.30;99.90
6357;DHT22;3211;53.452;-2.264;2023-01-04T05:01:19;12.30;99.90
6357;DHT22;3211;53.452;-2.264;2023-01-04T05:03:46;12.20;99.90
6357;DHT22;3211;53.452;-2.264;2023-01-04T05:06:13;12.20;99.90
6357;DHT22;3211;53.452;-2.264;2023-01-04T05:08:40;12.20;99.90
6357;DHT22;3211;53.452;-2.264;2023-01-04T05:11:09;12.20;99.90
6357;DHT22;3211;53.452;-2.264;2023-01-04T05:13:36;12.20;99.90
6357;DHT22;3211;53.452;-2.264;2023-01-04T05:16:03;12.20;99.90
6357;DHT22;3211;53.452;-2.264;2023-01-04T05:18:32;12.10;99.90
6357;DHT22;3211;53.452;-2.264;2023-01-04T05:20:59;12.20;99.90
6357;DHT22;3211;53.452;-2.264;2023-01-04T05:23:27;12.20;99.90
6357;DHT22;3211;53.452;-2.264;2023-01-04T05:25:56;12.20;99.90
6357;DHT22;3211;53.452;-2.264;2023-01-04T05:28:24;12.10;99.90
6357;DHT22;3211;53.452;-2.264;2023-01-04T05:30:52;12.20;99.90
6357;DHT22;3211;53.452;-2.264;2023-01-04T05:33:21;12.20;99.90
6357;DHT22;3211;53.452;-2.264;2023-01-04T05:35:50;12.10;99.90
6357;DHT22;3211;53.452;-2.264;2023-01-04T05:38:18;12.10;99.90
6357;DHT22;3211;53.452;-2.264;2023-01-04T05:40:45;12.10;99.90
6357;DHT22;3211;53.452;-2.264;2023-01-04T05:43:13;12.10;99.90
6357;DHT22;3211;53.452;-2.264;2023-01-04T05:45:41;12.10;99.90
6357;DHT22;3211;53.452;-2.264;2023-01-04T05:48:09;12.10;99.90
6357;DHT22;3211;53.452;-2.264;2023-01-04T05:50:36;12.10;99.90
6357;DHT22;3211;53.452;-2.264;2023-01-04T05:53:04;12.10;99.90
6357;DHT22;3211;53.452;-2.264;2023-01-04T05:55:32;12.10;99.90
6357;DHT22;3211;53.452;-2.264;2023-01-04T05:57:59;12.10;99.90
6357;DHT22;3211;53.452;-2.264;2023-01-04T06:00:26;12.10;99.90
6357;DHT22;3211;53.452;-2.264;2023-01-04T06:02:53;12.10;99.90
6357;DHT22;3211;53.452;-2.264;2023-01-04T06:05:23;12.10;99.90
6357;DHT22;3211;53.452;-2.264;2023-01-04T06:07:50;12.20;99.90
6357;DHT22;3211;53.452;-2.264;2023-01-04T06:10:19;12.10;99.90
6357;DHT22;3211;53.452;-2.264;2023-01-04T06:12:46;12.20;99.90
6357;DHT22;3211;53.452;-2.264;2023-01-04T06:15:13;12.20;99.90
6357;DHT22;3211;53.452;-2.264;2023-01-04T06:17:41;12.20;99.90
6357;DHT22;3211;53.452;-2.264;2023-01-04T06:20:09;12.30;99.90
6357;DHT22;3211;53.452;-2.264;2023-01-04T06:22:37;12.20;99.90
6357;DHT22;3211;53.452;-2.264;2023-01-04T06:25:05;12.30;99.90
6357;DHT22;3211;53.452;-2.264;2023-01-04T06:27:33;12.30;99.90
6357;DHT22;3211;53.452;-2.264;2023-01-04T06:30:00;12.30;99.90
6357;DHT22;3211;53.452;-2.264;2023-01-04T06:32:27;12.30;99.90
6357;DHT22;3211;53.452;-2.264;2023-01-04T06:34:54;12.30;99.90
6357;DHT22;3211;53.452;-2.264;2023-01-04T06:37:21;12.30;99.90
6357;DHT22;3211;53.452;-2.264;2023-01-04T06:39:48;12.30;99.90
6357;DHT22;3211;53.452;-2.264;2023-01-04T06:42:15;12.30;99.90
6357;DHT22;3211;53.452;-2.264;2023-01-04T06:45:01;12.40;99.90
6357;DHT22;3211;53.452;-2.264;2023-01-04T06:47:28;12.40;99.90
6357;DHT22;3211;53.452;-2.264;2023-01-04T06:49:55;12.40;99.90
6357;DHT22;3211;53.452;-2.264;2023-01-04T06:52:21;12.40;99.90
6357;DHT22;3211;53.452;-2.264;2023-01-04T06:54:48;12.40;99.90
6357;DHT22;3211;53.452;-2.264;2023-01-04T06:57:15;12.40;99.90
6357;DHT22;3211;53.452;-2.264;2023-01-04T06:59:42;12.50;99.90
6357;DHT22;3211;53.452;-2.264;2023-01-04T07:02:12;12.40;99.90
6357;DHT22;3211;53.452;-2.264;2023-01-04T07:04:41;12.40;99.90
6357;DHT22;3211;53.452;-2.264;2023-01-04T07:07:08;12.40;99.90
6357;DHT22;3211;53.452;-2.264;2023-01-04T07:09:35;12.40;99.90
6357;DHT22;3211;53.452;-2.264;2023-01-04T07:12:02;12.40;99.90
6357;DHT22;3211;53.452;-2.264;2023-01-04T07:14:30;12.40;99.90
6357;DHT22;3211;53.452;-2.264;2023-01-04T07:16:57;12.30;99.90
6357;DHT22;3211;53.452;-2.264;2023-01-04T07:19:25;12.40;99.90
6357;DHT22;3211;53.452;-2.264;2023-01-04T07:21:52;12.40;99.90
6357;DHT22;3211;53.452;-2.264;2023-01-04T07:24:19;12.30;99.90
6357;DHT22;3211;53.452;-2.264;2023-01-04T07:26:46;12.30;99.90
6357;DHT22;3211;53.452;-2.264;2023-01-04T07:29:13;12.30;99.90
6357;DHT22;3211;53.452;-2.264;2023-01-04T07:31:42;12.30;99.90
6357;DHT22;3211;53.452;-2.264;2023-01-04T07:34:09;12.20;99.90
6357;DHT22;3211;53.452;-2.264;2023-01-04T07:36:38;12.20;99.90
6357;DHT22;3211;53.452;-2.264;2023-01-04T07:39:05;12.20;99.90
6357;DHT22;3211;53.452;-2.264;2023-01-04T07:41:34;12.20;99.90
6357;DHT22;3211;53.452;-2.264;2023-01-04T07:44:01;12.20;99.90
6357;DHT22;3211;53.452;-2.264;2023-01-04T07:46:28;12.30;99.90
6357;DHT22;3211;53.452;-2.264;2023-01-04T07:48:55;12.30;99.90
6357;DHT22;3211;53.452;-2.264;2023-01-04T07:51:22;12.20;99.90
6357;DHT22;3211;53.452;-2.264;2023-01-04T07:53:50;12.20;99.90
6357;DHT22;3211;53.452;-2.264;2023-01-04T07:56:18;12.20;99.90
6357;DHT22;3211;53.452;-2.264;2023-01-04T07:58:44;12.20;99.90
6357;DHT22;3211;53.452;-2.264;2023-01-04T08:01:13;12.20;99.90
6357;DHT22;3211;53.452;-2.264;2023-01-04T08:03:40;12.20;99.90
6357;DHT22;3211;53.452;-2.264;2023-01-04T08:06:09;12.30;99.90
6357;DHT22;3211;53.452;-2.264;2023-01-04T08:08:36;12.20;99.90
6357;DHT22;3211;53.452;-2.264;2023-01-04T08:11:06;12.20;99.90
6357;DHT22;3211;53.452;-2.264;2023-01-04T08:13:33;12.20;99.90
6357;DHT22;3211;53.452;-2.264;2023-01-04T08:16:00;12.20;99.90
6357;DHT22;3211;53.452;-2.264;2023-01-04T08:18:27;12.20;99.90
6357;DHT22;3211;53.452;-2.264;2023-01-04T08:21:01;12.20;99.90
6357;DHT22;3211;53.452;-2.264;2023-01-04T08:23:28;12.20;99.90
6357;DHT22;3211;53.452;-2.264;2023-01-04T08:25:59;12.20;99.90
6357;DHT22;3211;53.452;-2.264;2023-01-04T08:28:28;12.10;99.90
6357;DHT22;3211;53.452;-2.264;2023-01-04T08:30:55;12.10;99.90
6357;DHT22;3211;53.452;-2.264;2023-01-04T08:33:22;12.10;99.90
6357;DHT22;3211;53.452;-2.264;2023-01-04T08:35:49;12.10;99.90
6357;DHT22;3211;53.452;-2.264;2023-01-04T08:38:16;12.10;99.90
6357;DHT22;3211;53.452;-2.264;2023-01-04T08:40:43;12.10;99.90
6357;DHT22;3211;53.452;-2.264;2023-01-04T08:43:10;12.10;99.90
6357;DHT22;3211;53.452;-2.264;2023-01-04T08:45:39;12.10;99.90
6357;DHT22;3211;53.452;-2.264;2023-01-04T08:48:06;12.10;99.90
6357;DHT22;3211;53.452;-2.264;2023-01-04T08:50:33;12.10;99.90
6357;DHT22;3211;53.452;-2.264;2023-01-04T08:53:00;12.10;99.90
6357;DHT22;3211;53.452;-2.264;2023-01-04T08:55:27;12.00;99.90
6357;DHT22;3211;53.452;-2.264;2023-01-04T08:57:54;12.00;99.90
6357;DHT22;3211;53.452;-2.264;2023-01-04T09:00:21;12.10;99.90
6357;DHT22;3211;53.452;-2.264;2023-01-04T09:02:49;12.00;99.90
6357;DHT22;3211;53.452;-2.264;2023-01-04T09:05:17;12.00;99.90
6357;DHT22;3211;53.452;-2.264;2023-01-04T09:07:44;12.00;99.90
6357;DHT22;3211;53.452;-2.264;2023-01-04T09:10:11;12.00;99.90
6357;DHT22;3211;53.452;-2.264;2023-01-04T09:12:38;12.00;99.90
6357;DHT22;3211;53.452;-2.264;2023-01-04T09:15:06;11.90;99.90
6357;DHT22;3211;53.452;-2.264;2023-01-04T09:17:33;11.90;99.90
6357;DHT22;3211;53.452;-2.264;2023-01-04T09:20:01;11.90;99.90
6357;DHT22;3211;53.452;-2.264;2023-01-04T09:22:30;11.90;99.90
6357;DHT22;3211;53.452;-2.264;2023-01-04T09:24:57;12.00;99.90
6357;DHT22;3211;53.452;-2.264;2023-01-04T09:27:24;12.00;99.90
6357;DHT22;3211;53.452;-2.264;2023-01-04T09:29:51;12.00;99.90
6357;DHT22;3211;53.452;-2.264;2023-01-04T09:32:18;12.00;99.90
6357;DHT22;3211;53.452;-2.264;2023-01-04T09:34:46;12.00;99.90
6357;DHT22;3211;53.452;-2.264;2023-01-04T09:37:14;11.90;99.90
6357;DHT22;3211;53.452;-2.264;2023-01-04T09:39:41;12.00;99.90
6357;DHT22;3211;53.452;-2.264;2023-01-04T09:42:16;11.90;99.90
6357;DHT22;3211;53.452;-2.264;2023-01-04T09:44:49;11.90;99.90
6357;DHT22;3211;53.452;-2.264;2023-01-04T09:47:19;11.90;99.90
6357;DHT22;3211;53.452;-2.264;2023-01-04T09:49:53;11.90;99.90
6357;DHT22;3211;53.452;-2.264;2023-01-04T09:52:27;11.90;99.90
6357;DHT22;3211;53.452;-2.264;2023-01-04T09:55:07;11.90;99.90
6357;DHT22;3211;53.452;-2.264;2023-01-04T09:57:39;11.90;99.90
6357;DHT22;3211;53.452;-2.264;2023-01-04T10:00:14;11.80;99.90
6357;DHT22;3211;53.452;-2.264;2023-01-04T10:02:45;11.90;99.90
6357;DHT22;3211;53.452;-2.264;2023-01-04T10:05:16;11.90;99.90
6357;DHT22;3211;53.452;-2.264;2023-01-04T10:07:45;11.80;99.90
6357;DHT22;3211;53.452;-2.264;2023-01-04T10:10:13;11.90;99.90
6357;DHT22;3211;53.452;-2.264;2023-01-04T10:12:50;11.90;99.90
6357;DHT22;3211;53.452;-2.264;2023-01-04T10:15:30;11.90;99.90
6357;DHT22;3211;53.452;-2.264;2023-01-04T10:18:12;11.90;99.90
6357;DHT22;3211;53.452;-2.264;2023-01-04T10:20:55;11.90;99.90
6357;DHT22;3211;53.452;-2.264;2023-01-04T10:23:33;12.00;99.90
6357;DHT22;3211;53.452;-2.264;2023-01-04T10:26:07;12.00;99.90
6357;DHT22;3211;53.452;-2.264;2023-01-04T10:28:47;12.00;99.90
6357;DHT22;3211;53.452;-2.264;2023-01-04T10:31:20;12.10;99.90
6357;DHT22;3211;53.452;-2.264;2023-01-04T10:33:53;12.10;99.90
6357;DHT22;3211;53.452;-2.264;2023-01-04T10:36:27;12.10;99.90
6357;DHT22;3211;53.452;-2.264;2023-01-04T10:39:00;12.10;99.90
6357;DHT22;3211;53.452;-2.264;2023-01-04T10:41:32;12.10;99.90
6357;DHT22;3211;53.452;-2.264;2023-01-04T10:44:05;12.20;99.90
6357;DHT22;3211;53.452;-2.264;2023-01-04T10:46:39;12.20;99.90
6357;DHT22;3211;53.452;-2.264;2023-01-04T10:49:13;12.20;99.90
6357;DHT22;3211;53.452;-2.264;2023-01-04T10:51:45;12.20;99.90
6357;DHT22;3211;53.452;-2.264;2023-01-04T10:54:22;12.20;99.90
6357;DHT22;3211;53.452;-2.264;2023-01-04T10:56:55;12.30;99.90
6357;DHT22;3211;53.452;-2.264;2023-01-04T10:59:29;12.30;99.90
6357;DHT22;3211;53.452;-2.264;2023-01-04T11:02:05;12.40;99.90
6357;DHT22;3211;53.452;-2.264;2023-01-04T11:04:38;12.40;99.90
6357;DHT22;3211;53.452;-2.264;2023-01-04T11:07:07;12.40;99.90
6357;DHT22;3211;53.452;-2.264;2023-01-04T11:09:43;12.30;99.90
6357;DHT22;3211;53.452;-2.264;2023-01-04T11:12:12;12.30;99.90
6357;DHT22;3211;53.452;-2.264;2023-01-04T11:14:41;12.30;99.90
6357;DHT22;3211;53.452;-2.264;2023-01-04T11:17:09;12.30;99.90
6357;DHT22;3211;53.452;-2.264;2023-01-04T11:19:38;12.30;99.90
6357;DHT22;3211;53.452;-2.264;2023-01-04T11:22:10;12.30;99.90
6357;DHT22;3211;53.452;-2.264;2023-01-04T11:24:43;12.30;99.90
6357;DHT22;3211;53.452;-2.264;2023-01-04T11:27:14;12.30;99.90
6357;DHT22;3211;53.452;-2.264;2023-01-04T11:29:47;12.30;99.90
6357;DHT22;3211;53.452;-2.264;2023-01-04T11:32:18;12.30;99.90
6357;DHT22;3211;53.452;-2.264;2023-01-04T11:34:50;12.20;99.90
6357;DHT22;3211;53.452;-2.264;2023-01-04T11:37:29;12.20;99.90
6357;DHT22;3211;53.452;-2.264;2023-01-04T11:40:18;12.30;99.90
6357;DHT22;3211;53.452;-2.264;2023-01-04T11:42:47;12.30;99.90
6357;DHT22;3211;53.452;-2.264;2023-01-04T11:45:21;12.40;99.90
6357;DHT22;3211;53.452;-2.264;2023-01-04T11:47:50;12.40;99.90
6357;DHT22;3211;53.452;-2.264;2023-01-04T11:50:33;12.50;99.90
6357;DHT22;3211;53.452;-2.264;2023-01-04T11:53:00;12.60;99.90
6357;DHT22;3211;53.452;-2.264;2023-01-04T11:55:29;12.70;99.90
6357;DHT22;3211;53.452;-2.264;2023-01-04T11:58:05;12.70;99.90
6357;DHT22;3211;53.452;-2.264;2023-01-04T12:00:32;12.80;99.90
6357;DHT22;3211;53.452;-2.264;2023-01-04T12:03:10;12.90;99.90
6357;DHT22;3211;53.452;-2.264;2023-01-04T12:05:37;12.90;99.90
6357;DHT22;3211;53.452;-2.264;2023-01-04T12:08:04;13.00;99.90
6357;DHT22;3211;53.452;-2.264;2023-01-04T12:10:33;13.10;99.90
6357;DHT22;3211;53.452;-2.264;2023-01-04T12:13:00;13.10;99.90
6357;DHT22;3211;53.452;-2.264;2023-01-04T12:15:33;13.20;99.90
6357;DHT22;3211;53.452;-2.264;2023-01-04T12:18:05;13.60;99.90
6357;DHT22;3211;53.452;-2.264;2023-01-04T12:20:35;13.50;99.90
6357;DHT22;3211;53.452;-2.264;2023-01-04T12:23:02;13.40;99.90
6357;DHT22;3211;53.452;-2.264;2023-01-04T12:25:37;13.10;99.90
6357;DHT22;3211;53.452;-2.264;2023-01-04T12:28:05;13.00;99.90
6357;DHT22;3211;53.452;-2.264;2023-01-04T12:30:37;12.90;99.90
6357;DHT22;3211;53.452;-2.264;2023-01-04T12:33:37;12.90;99.90
6357;DHT22;3211;53.452;-2.264;2023-01-04T12:36:06;12.80;99.90
6357;DHT22;3211;53.452;-2.264;2023-01-04T12:38:56;12.80;99.90
6357;DHT22;3211;53.452;-2.264;2023-01-04T12:47:48;13.10;99.90
6357;DHT22;3211;53.452;-2.264;2023-01-04T12:51:16;13.10;99.90
6357;DHT22;3211;53.452;-2.264;2023-01-04T12:53:51;13.10;99.90
6357;DHT22;3211;53.452;-2.264;2023-01-04T12:56:19;13.20;99.90
6357;DHT22;3211;53.452;-2.264;2023-01-04T12:59:05;13.30;99.90
6357;DHT22;3211;53.452;-2.264;2023-01-04T13:01:33;13.40;99.90
6357;DHT22;3211;53.452;-2.264;2023-01-04T13:06:45;13.80;99.90
6357;DHT22;3211;53.452;-2.264;2023-01-04T13:09:16;13.80;99.90
6357;DHT22;3211;53.452;-2.264;2023-01-04T13:12:01;13.80;99.90
6357;DHT22;3211;53.452;-2.264;2023-01-04T13:14:33;13.80;99.90
6357;DHT22;3211;53.452;-2.264;2023-01-04T13:17:17;13.90;99.90
6357;DHT22;3211;53.452;-2.264;2023-01-04T13:19:46;14.00;99.90
6357;DHT22;3211;53.452;-2.264;2023-01-04T13:22:20;14.10;99.90
6357;DHT22;3211;53.452;-2.264;2023-01-04T13:24:48;14.10;99.90
6357;DHT22;3211;53.452;-2.264;2023-01-04T13:27:18;14.00;99.90
6357;DHT22;3211;53.452;-2.264;2023-01-04T13:29:46;13.90;99.90
6357;DHT22;3211;53.452;-2.264;2023-01-04T13:32:18;13.90;99.90
6357;DHT22;3211;53.452;-2.264;2023-01-04T13:34:50;13.70;99.90
6357;DHT22;3211;53.452;-2.264;2023-01-04T13:37:28;13.50;99.90
6357;DHT22;3211;53.452;-2.264;2023-01-04T13:40:05;13.50;99.90
6357;DHT22;3211;53.452;-2.264;2023-01-04T13:42:43;13.40;99.90
6357;DHT22;3211;53.452;-2.264;2023-01-04T13:45:40;13.50;99.90
6357;DHT22;3211;53.452;-2.264;2023-01-04T13:48:11;13.60;99.90
6357;DHT22;3211;53.452;-2.264;2023-01-04T13:50:41;13.60;99.90
6357;DHT22;3211;53.452;-2.264;2023-01-04T13:53:22;13.70;99.90
6357;DHT22;3211;53.452;-2.264;2023-01-04T13:55:50;13.70;99.90
6357;DHT22;3211;53.452;-2.264;2023-01-04T13:58:19;13.70;99.90
6357;DHT22;3211;53.452;-2.264;2023-01-04T14:00:49;13.60;99.90
6357;DHT22;3211;53.452;-2.264;2023-01-04T14:03:34;13.70;99.90
6357;DHT22;3211;53.452;-2.264;2023-01-04T14:06:14;13.60;99.90
6357;DHT22;3211;53.452;-2.264;2023-01-04T14:08:46;13.60;99.90
6357;DHT22;3211;53.452;-2.264;2023-01-04T14:11:17;13.60;99.90
6357;DHT22;3211;53.452;-2.264;2023-01-04T14:14:17;13.40;99.90
6357;DHT22;3211;53.452;-2.264;2023-01-04T14:16:45;13.40;99.90
6357;DHT22;3211;53.452;-2.264;2023-01-04T14:22:37;13.30;99.90
6357;DHT22;3211;53.452;-2.264;2023-01-04T14:25:37;13.10;99.90
6357;DHT22;3211;53.452;-2.264;2023-01-04T14:28:38;13.00;99.90
6357;DHT22;3211;53.452;-2.264;2023-01-04T14:33:58;12.90;99.90
6357;DHT22;3211;53.452;-2.264;2023-01-04T14:36:43;12.90;99.90
6357;DHT22;3211;53.452;-2.264;2023-01-04T14:39:33;12.90;99.90
6357;DHT22;3211;53.452;-2.264;2023-01-04T14:42:01;13.00;99.90
6357;DHT22;3211;53.452;-2.264;2023-01-04T14:44:30;12.90;99.90
6357;DHT22;3211;53.452;-2.264;2023-01-04T14:47:01;12.90;99.90
6357;DHT22;3211;53.452;-2.264;2023-01-04T14:49:30;12.90;99.90
6357;DHT22;3211;53.452;-2.264;2023-01-04T14:52:00;12.90;99.90
6357;DHT22;3211;53.452;-2.264;2023-01-04T14:54:28;12.80;99.90
6357;DHT22;3211;53.452;-2.264;2023-01-04T14:56:58;12.80;99.90
6357;DHT22;3211;53.452;-2.264;2023-01-04T14:59:25;12.40;99.90
6357;DHT22;3211;53.452;-2.264;2023-01-04T15:01:54;11.90;99.90
6357;DHT22;3211;53.452;-2.264;2023-01-04T15:04:21;11.60;99.90
6357;DHT22;3211;53.452;-2.264;2023-01-04T15:06:50;11.50;99.90
6357;DHT22;3211;53.452;-2.264;2023-01-04T15:09:18;11.40;99.90
6357;DHT22;3211;53.452;-2.264;2023-01-04T15:11:45;11.40;99.90
6357;DHT22;3211;53.452;-2.264;2023-01-04T15:14:13;11.50;99.90
6357;DHT22;3211;53.452;-2.264;2023-01-04T15:16:40;11.50;99.90
6357;DHT22;3211;53.452;-2.264;2023-01-04T15:19:07;11.40;99.90
6357;DHT22;3211;53.452;-2.264;2023-01-04T15:21:35;11.50;99.90
6357;DHT22;3211;53.452;-2.264;2023-01-04T15:24:02;11.50;99.90
6357;DHT22;3211;53.452;-2.264;2023-01-04T15:26:29;11.60;99.90
6357;DHT22;3211;53.452;-2.264;2023-01-04T15:28:56;11.70;99.90
6357;DHT22;3211;53.452;-2.264;2023-01-04T15:31:24;11.60;99.90
6357;DHT22;3211;53.452;-2.264;2023-01-04T15:33:51;11.60;99.90
6357;DHT22;3211;53.452;-2.264;2023-01-04T15:36:18;11.60;99.90
6357;DHT22;3211;53.452;-2.264;2023-01-04T15:38:45;11.70;99.90
6357;DHT22;3211;53.452;-2.264;2023-01-04T15:41:14;11.60;99.90
6357;DHT22;3211;53.452;-2.264;2023-01-04T15:44:02;11.60;99.90
6357;DHT22;3211;53.452;-2.264;2023-01-04T15:46:30;11.70;99.90
6357;DHT22;3211;53.452;-2.264;2023-01-04T15:48:57;11.60;99.90
6357;DHT22;3211;53.452;-2.264;2023-01-04T15:51:24;11.60;99.90
6357;DHT22;3211;53.452;-2.264;2023-01-04T15:53:52;11.50;99.90
6357;DHT22;3211;53.452;-2.264;2023-01-04T15:56:19;11.50;99.90
6357;DHT22;3211;53.452;-2.264;2023-01-04T15:58:46;11.40;99.90
6357;DHT22;3211;53.452;-2.264;2023-01-04T16:01:17;11.40;99.90
6357;DHT22;3211;53.452;-2.264;2023-01-04T16:03:45;11.40;99.90
6357;DHT22;3211;53.452;-2.264;2023-01-04T16:06:14;11.30;99.90
6357;DHT22;3211;53.452;-2.264;2023-01-04T16:08:42;11.30;99.90
6357;DHT22;3211;53.452;-2.264;2023-01-04T16:11:11;11.30;99.90
6357;DHT22;3211;53.452;-2.264;2023-01-04T16:13:38;11.30;99.90
6357;DHT22;3211;53.452;-2.264;2023-01-04T16:16:06;11.30;99.90
6357;DHT22;3211;53.452;-2.264;2023-01-04T16:18:33;11.30;99.90
6357;DHT22;3211;53.452;-2.264;2023-01-04T16:21:05;11.30;99.90
6357;DHT22;3211;53.452;-2.264;2023-01-04T16:23:33;11.40;99.90
6357;DHT22;3211;53.452;-2.264;2023-01-04T16:26:04;11.40;99.90
6357;DHT22;3211;53.452;-2.264;2023-01-04T16:28:32;11.30;99.90
6357;DHT22;3211;53.452;-2.264;2023-01-04T16:30:59;11.30;99.90